Terminal Aerodrome Forecast
Issued by NWS Chicago, IL

Home | Current Version | Previous Version | Text Only | Print | Product List | Glossary On
Versions: 1 2 3 4 5 6 7 8 9 10 11 12 13 14 15 16 17 18 19 20 21 22 23 24 25 26 27 28 29 30
000
FTUS43 KLOT 231300 AAA
TAFRFD
TAF AMD
KRFD 231359Z 2314/2412 08009KT P6SM SCT250
     FM231600 10009KT P6SM FEW090 SCT200
     FM232300 11007KT P6SM BKN090 OVC250
     FM240300 11009KT P6SM VCSH BKN060 OVC090 PROB30 2404/2408 P6SM
      -SHRA=

USA.gov is the U.S. government's official web portal to all federal, state and local government web resources and services.